createdAt,value
2024-02-19T00:00:55.619Z,-0.20
2024-02-19T00:03:24.045Z,-0.20
2024-02-19T00:05:53.706Z,-0.20
2024-02-19T00:08:20.824Z,-0.10
2024-02-19T00:10:48.647Z,-0.20
2024-02-19T00:13:16.123Z,-0.20
2024-02-19T00:15:43.518Z,-0.30
2024-02-19T00:18:10.872Z,-0.30
2024-02-19T00:20:38.348Z,-0.30
2024-02-19T00:23:05.483Z,-0.40
2024-02-19T00:25:32.605Z,-0.40
2024-02-19T00:28:01.297Z,-0.40
2024-02-19T00:30:28.600Z,-0.40
2024-02-19T00:32:55.972Z,-0.40
2024-02-19T00:35:23.341Z,-0.40
2024-02-19T00:37:50.831Z,-0.40
2024-02-19T00:40:19.873Z,-0.40
2024-02-19T00:42:47.101Z,-0.40
2024-02-19T00:45:14.611Z,-0.40
2024-02-19T00:47:41.876Z,-0.40
2024-02-19T00:50:09.815Z,-0.40
2024-02-19T00:52:41.401Z,-0.40
2024-02-19T00:55:09.192Z,-0.40
2024-02-19T00:57:36.506Z,-0.50
2024-02-19T01:00:05.231Z,-0.50
2024-02-19T01:02:32.339Z,-0.50
2024-02-19T01:05:00.355Z,-0.50
2024-02-19T01:07:27.759Z,-0.40
2024-02-19T01:09:55.140Z,-0.40
2024-02-19T01:12:22.280Z,-0.40
2024-02-19T01:14:49.447Z,-0.40
2024-02-19T01:17:16.638Z,-0.40
2024-02-19T01:19:45.696Z,-0.40
2024-02-19T01:22:13.039Z,-0.40
2024-02-19T01:24:40.491Z,-0.40
2024-02-19T01:27:11.939Z,-0.40
2024-02-19T01:29:38.991Z,-0.50
2024-02-19T01:32:06.220Z,-0.50
2024-02-19T01:34:33.441Z,-0.50
2024-02-19T01:37:00.889Z,-0.50
2024-02-19T01:39:27.981Z,-0.50
2024-02-19T01:41:55.166Z,-0.50
2024-02-19T01:44:22.346Z,-0.50
2024-02-19T01:46:50.597Z,-0.50
2024-02-19T01:49:17.751Z,-0.50
2024-02-19T01:51:45.322Z,-0.60
2024-02-19T01:54:12.999Z,-0.60
2024-02-19T01:56:41.770Z,-0.60
2024-02-19T01:59:10.953Z,-0.60
2024-02-19T02:01:39.442Z,-0.50
2024-02-19T02:04:07.055Z,-0.50
2024-02-19T02:06:35.255Z,-0.50
2024-02-19T02:09:02.937Z,-0.50
2024-02-19T02:11:30.164Z,-0.50
2024-02-19T02:13:57.488Z,-0.50
2024-02-19T02:16:25.660Z,-0.50
2024-02-19T02:18:54.718Z,-0.50
2024-02-19T02:21:22.318Z,-0.50
2024-02-19T02:23:49.687Z,-0.50
2024-02-19T02:26:16.772Z,-0.50
2024-02-19T02:28:43.800Z,-0.50
2024-02-19T02:31:10.993Z,-0.50
2024-02-19T02:33:38.464Z,-0.50
2024-02-19T02:36:10.673Z,-0.50
2024-02-19T02:38:37.849Z,-0.50
2024-02-19T02:41:05.087Z,-0.50
2024-02-19T02:43:32.333Z,-0.50
2024-02-19T02:45:59.440Z,-0.50
2024-02-19T02:48:26.588Z,-0.50
2024-02-19T02:50:53.718Z,-0.40
2024-02-19T02:53:23.480Z,-0.40
2024-02-19T02:55:50.626Z,-0.40
2024-02-19T02:58:17.924Z,-0.40
2024-02-19T03:00:45.235Z,-0.40
2024-02-19T03:03:12.578Z,-0.40
2024-02-19T03:05:40.320Z,-0.30
2024-02-19T03:08:08.436Z,-0.30
2024-02-19T03:10:35.831Z,-0.30
2024-02-19T03:13:04.279Z,-0.30
2024-02-19T03:15:31.410Z,-0.30
2024-02-19T03:17:58.713Z,-0.30
2024-02-19T03:20:25.944Z,-0.20
2024-02-19T03:22:54.616Z,-0.30
2024-02-19T03:25:22.055Z,-0.30
2024-02-19T03:27:50.705Z,-0.40
2024-02-19T03:30:18.393Z,-0.30
2024-02-19T03:32:45.706Z,-0.30
2024-02-19T03:35:13.582Z,-0.30
2024-02-19T03:37:40.743Z,-0.20
2024-02-19T03:40:08.732Z,-0.20
2024-02-19T03:42:36.303Z,-0.30
2024-02-19T03:45:03.724Z,-0.30
2024-02-19T03:47:30.745Z,-0.30
2024-02-19T03:49:58.248Z,-0.30
2024-02-19T03:52:25.428Z,-0.30
2024-02-19T03:54:52.657Z,-0.40
2024-02-19T03:57:20.080Z,-0.30
2024-02-19T03:59:47.544Z,-0.30
2024-02-19T04:02:14.765Z,-0.30
2024-02-19T04:04:42.045Z,-0.30
2024-02-19T04:07:09.666Z,-0.30
2024-02-19T04:09:37.036Z,-0.30
2024-02-19T04:12:05.046Z,-0.30
2024-02-19T04:14:32.175Z,-0.20
2024-02-19T04:16:59.609Z,-0.30
2024-02-19T04:19:26.722Z,-0.30
2024-02-19T04:21:54.020Z,-0.30
2024-02-19T04:24:21.353Z,-0.30
2024-02-19T04:26:48.702Z,-0.30
2024-02-19T04:29:15.788Z,-0.40
2024-02-19T04:31:42.989Z,-0.40
2024-02-19T04:34:10.489Z,-0.40
2024-02-19T04:36:37.754Z,-0.40
2024-02-19T04:39:04.879Z,-0.40
2024-02-19T04:41:32.515Z,-0.50
2024-02-19T04:43:59.659Z,-0.50
2024-02-19T04:46:26.742Z,-0.40
2024-02-19T04:48:54.054Z,-0.40
2024-02-19T04:51:21.245Z,-0.40
2024-02-19T04:53:48.377Z,-0.40
2024-02-19T04:56:18.480Z,-0.40
2024-02-19T04:58:45.689Z,-0.40
2024-02-19T05:01:12.797Z,-0.40
2024-02-19T05:03:40.674Z,-0.40
2024-02-19T05:06:08.581Z,-0.40
2024-02-19T05:08:35.698Z,-0.40
2024-02-19T05:11:02.785Z,-0.30
2024-02-19T05:13:29.959Z,-0.40
2024-02-19T05:15:57.748Z,-0.40
2024-02-19T05:18:25.217Z,-0.40
2024-02-19T05:20:52.813Z,-0.40
2024-02-19T05:23:20.071Z,-0.40
2024-02-19T05:25:47.210Z,-0.30
2024-02-19T05:28:14.294Z,-0.30
2024-02-19T05:30:41.528Z,-0.30
2024-02-19T05:33:09.279Z,-0.30
2024-02-19T05:35:36.449Z,-0.30
2024-02-19T05:38:03.634Z,-0.40
2024-02-19T05:40:30.833Z,-0.40
2024-02-19T05:42:57.969Z,-0.30
2024-02-19T05:45:25.057Z,-0.30
2024-02-19T05:47:52.427Z,-0.30
2024-02-19T05:50:20.043Z,-0.30
2024-02-19T05:52:47.188Z,-0.30
2024-02-19T05:55:14.482Z,-0.30
2024-02-19T05:57:41.654Z,-0.30
2024-02-19T06:00:15.352Z,-0.30
2024-02-19T06:02:43.130Z,-0.20
2024-02-19T06:05:11.650Z,-0.20
2024-02-19T06:07:39.019Z,-0.20
2024-02-19T06:10:06.486Z,-0.20
2024-02-19T06:12:33.703Z,-0.20
2024-02-19T06:15:00.825Z,-0.20
2024-02-19T06:17:27.889Z,-0.20
2024-02-19T06:19:55.147Z,-0.20
2024-02-19T06:22:23.097Z,-0.10
2024-02-19T06:24:50.218Z,-0.10
2024-02-19T06:27:17.852Z,-0.10
2024-02-19T06:29:45.433Z,-0.10
2024-02-19T06:32:12.508Z,-0.10
2024-02-19T06:34:43.604Z,-0.10
2024-02-19T06:37:11.925Z,-0.20
2024-02-19T06:39:41.054Z,-0.10
2024-02-19T06:42:08.501Z,-0.10
2024-02-19T06:44:35.679Z,-0.10
2024-02-19T06:47:02.789Z,-0.10
2024-02-19T06:49:29.996Z,-0.10
2024-02-19T06:51:57.661Z,-0.10
2024-02-19T06:54:27.248Z,0.00
2024-02-19T06:56:56.418Z,0.00
2024-02-19T06:59:23.565Z,0.00
2024-02-19T07:01:50.913Z,0.00
2024-02-19T07:04:19.907Z,0.10
2024-02-19T07:06:47.320Z,0.10
2024-02-19T07:09:14.466Z,0.10
2024-02-19T07:11:41.791Z,0.10
2024-02-19T07:14:08.976Z,0.20
2024-02-19T07:16:36.202Z,0.20
2024-02-19T07:19:03.475Z,0.20
2024-02-19T07:21:30.547Z,0.20
2024-02-19T07:23:57.638Z,0.20
2024-02-19T07:26:24.813Z,0.20
2024-02-19T07:28:52.567Z,0.30
2024-02-19T07:31:19.658Z,0.40
2024-02-19T07:33:46.901Z,0.40
2024-02-19T07:36:14.200Z,0.40
2024-02-19T07:38:41.257Z,0.40
2024-02-19T07:41:15.109Z,0.50
2024-02-19T07:43:42.410Z,0.50
2024-02-19T07:46:09.695Z,0.50
2024-02-19T07:48:36.979Z,0.60
2024-02-19T07:51:04.800Z,0.70
2024-02-19T07:53:31.948Z,0.70
2024-02-19T07:56:08.633Z,0.70
2024-02-19T07:58:36.350Z,0.80
2024-02-19T08:01:05.579Z,0.80
2024-02-19T08:03:33.597Z,0.90
2024-02-19T08:06:01.054Z,0.90
2024-02-19T08:08:29.599Z,0.90
2024-02-19T08:10:56.734Z,0.90
2024-02-19T08:13:24.001Z,0.90
2024-02-19T08:15:51.196Z,0.80
2024-02-19T08:18:18.971Z,0.90
2024-02-19T08:20:46.314Z,0.90
2024-02-19T08:23:13.441Z,1.00
2024-02-19T08:25:40.798Z,1.00
2024-02-19T08:28:07.884Z,1.10
2024-02-19T08:30:35.044Z,1.20
2024-02-19T08:33:02.186Z,1.20
2024-02-19T08:35:29.384Z,1.30
2024-02-19T08:38:00.095Z,1.40
2024-02-19T08:40:27.351Z,1.40
2024-02-19T08:42:55.742Z,1.40
2024-02-19T08:45:25.425Z,1.40
2024-02-19T08:47:54.952Z,1.40
2024-02-19T08:50:22.101Z,1.50
2024-02-19T08:52:49.272Z,1.50
2024-02-19T08:55:16.493Z,1.60
2024-02-19T08:57:43.684Z,1.60
2024-02-19T09:00:12.930Z,1.60
2024-02-19T09:02:43.665Z,1.60
2024-02-19T09:05:13.704Z,1.70
2024-02-19T09:07:40.910Z,1.70
2024-02-19T09:10:08.405Z,1.90
2024-02-19T09:12:35.581Z,2.00
2024-02-19T09:15:04.094Z,2.10
2024-02-19T09:17:31.317Z,2.10
2024-02-19T09:19:58.693Z,2.00
2024-02-19T09:22:25.986Z,2.10
2024-02-19T09:24:53.929Z,2.00
2024-02-19T09:27:21.081Z,2.10
2024-02-19T09:29:48.171Z,2.10
2024-02-19T09:32:15.406Z,2.10
2024-02-19T09:34:43.026Z,2.10
2024-02-19T09:37:10.431Z,2.10
2024-02-19T09:39:39.651Z,2.10
2024-02-19T09:42:08.346Z,2.10
2024-02-19T09:44:35.930Z,2.30
2024-02-19T09:47:04.032Z,2.30
2024-02-19T09:49:32.340Z,2.40
2024-02-19T09:52:01.234Z,2.50
2024-02-19T09:54:30.184Z,2.40
2024-02-19T09:56:58.219Z,2.60
2024-02-19T09:59:25.694Z,2.50
2024-02-19T10:01:53.240Z,2.50
2024-02-19T10:04:22.408Z,2.50
2024-02-19T10:06:53.302Z,2.50
2024-02-19T10:09:22.056Z,2.50
2024-02-19T10:11:50.789Z,2.60
2024-02-19T10:14:18.285Z,2.70
2024-02-19T10:16:52.001Z,2.60
2024-02-19T10:19:19.238Z,2.60
2024-02-19T10:21:51.882Z,2.60
2024-02-19T10:24:19.892Z,2.60
2024-02-19T10:26:48.395Z,2.60
2024-02-19T10:29:15.858Z,2.60
2024-02-19T10:31:43.133Z,2.60
2024-02-19T10:34:16.195Z,2.60
2024-02-19T10:36:45.274Z,2.50
2024-02-19T10:39:12.620Z,2.60
2024-02-19T10:41:40.355Z,2.60
2024-02-19T10:44:07.598Z,2.70
2024-02-19T10:46:35.230Z,2.60
2024-02-19T10:49:02.969Z,2.50
2024-02-19T10:51:30.237Z,2.50
2024-02-19T10:54:04.559Z,2.50
2024-02-19T10:56:44.577Z,2.50
2024-02-19T10:59:12.566Z,2.60
2024-02-19T11:01:42.885Z,2.60
2024-02-19T11:04:16.821Z,2.50
2024-02-19T11:06:48.779Z,2.50
2024-02-19T11:09:16.284Z,2.60
2024-02-19T11:11:58.618Z,2.60
2024-02-19T11:14:27.020Z,2.70
2024-02-19T11:17:00.385Z,2.60
2024-02-19T11:19:28.406Z,2.50
2024-02-19T11:22:02.708Z,2.60
2024-02-19T11:24:30.907Z,2.70
2024-02-19T11:26:58.600Z,2.80
2024-02-19T11:29:33.438Z,2.80
2024-02-19T11:32:08.471Z,2.70
2024-02-19T11:34:36.224Z,2.60
2024-02-19T11:37:08.905Z,2.60
2024-02-19T11:39:36.228Z,2.60
2024-02-19T11:42:04.129Z,2.60
2024-02-19T11:44:31.813Z,2.60
2024-02-19T11:46:59.391Z,2.50
2024-02-19T11:49:27.345Z,2.50
2024-02-19T11:52:01.180Z,2.50
2024-02-19T11:54:35.326Z,2.60
2024-02-19T11:57:09.100Z,2.50
2024-02-19T11:59:39.099Z,2.50
2024-02-19T12:02:07.542Z,2.50
2024-02-19T12:04:40.978Z,2.50
2024-02-19T12:07:11.917Z,2.50
2024-02-19T12:09:40.491Z,2.40
2024-02-19T12:12:07.706Z,2.40
2024-02-19T12:14:36.337Z,2.40
2024-02-19T12:17:07.146Z,2.40
2024-02-19T12:19:35.365Z,2.30
2024-02-19T12:22:02.697Z,2.40
2024-02-19T12:24:30.392Z,2.40
2024-02-19T12:26:57.599Z,2.40
2024-02-19T12:29:24.732Z,2.30
2024-02-19T12:31:52.026Z,2.40
2024-02-19T12:34:19.349Z,2.40
2024-02-19T12:36:46.658Z,2.40
2024-02-19T12:39:13.868Z,2.50
2024-02-19T12:41:42.236Z,2.50
2024-02-19T12:44:10.826Z,2.40
2024-02-19T12:46:38.014Z,2.40
2024-02-19T12:49:08.557Z,2.40
2024-02-19T12:51:37.386Z,2.50
2024-02-19T12:54:05.723Z,2.50
2024-02-19T12:56:32.865Z,2.50
2024-02-19T12:59:00.175Z,2.50
2024-02-19T13:01:32.286Z,2.50
2024-02-19T13:04:01.441Z,2.50
2024-02-19T13:06:28.943Z,2.50
2024-02-19T13:08:58.000Z,2.50
2024-02-19T13:11:26.773Z,2.50
2024-02-19T13:13:54.206Z,2.40
2024-02-19T13:16:21.650Z,2.40
2024-02-19T13:18:51.542Z,2.40
2024-02-19T13:21:20.986Z,2.50
2024-02-19T13:23:48.555Z,2.50
2024-02-19T13:26:15.925Z,2.50
2024-02-19T13:28:43.095Z,2.50
2024-02-19T13:31:10.463Z,2.50
2024-02-19T13:33:37.571Z,2.50
2024-02-19T13:36:05.096Z,2.40
2024-02-19T13:38:32.643Z,2.30
2024-02-19T13:41:04.320Z,2.30
2024-02-19T13:43:33.550Z,2.30
2024-02-19T13:46:03.194Z,2.30
2024-02-19T13:48:31.036Z,2.30
2024-02-19T13:50:59.033Z,2.30
2024-02-19T13:53:27.100Z,2.30
2024-02-19T13:55:54.973Z,2.20
2024-02-19T13:58:25.509Z,2.20
2024-02-19T14:00:53.526Z,2.20
2024-02-19T14:03:21.942Z,2.20
2024-02-19T14:05:49.374Z,2.20
2024-02-19T14:08:17.872Z,2.20
2024-02-19T14:10:44.970Z,2.20
2024-02-19T14:13:12.156Z,2.20
2024-02-19T14:15:40.305Z,2.20
2024-02-19T14:18:07.537Z,2.20
2024-02-19T14:20:34.805Z,2.20
2024-02-19T14:23:02.635Z,2.20
2024-02-19T14:25:31.143Z,2.20
2024-02-19T14:27:58.841Z,2.20
2024-02-19T14:30:25.950Z,2.20
2024-02-19T14:32:53.159Z,2.20
2024-02-19T14:35:20.600Z,2.10
2024-02-19T14:37:49.168Z,2.10
2024-02-19T14:40:19.502Z,2.00
2024-02-19T14:42:50.158Z,2.00
2024-02-19T14:45:17.688Z,2.00
2024-02-19T14:47:47.073Z,2.00
2024-02-19T14:50:14.947Z,2.00
2024-02-19T14:52:42.615Z,1.90
2024-02-19T14:55:15.374Z,2.00
2024-02-19T14:57:47.141Z,1.90
2024-02-19T15:00:22.447Z,2.00
2024-02-19T15:02:51.201Z,1.90
2024-02-19T15:05:19.254Z,1.90
2024-02-19T15:07:52.914Z,1.90
2024-02-19T15:10:26.182Z,1.90
2024-02-19T15:12:57.514Z,1.90
2024-02-19T15:15:25.216Z,1.80
2024-02-19T15:17:53.697Z,1.80
2024-02-19T15:20:21.475Z,1.80
2024-02-19T15:22:51.253Z,1.80
2024-02-19T15:25:18.604Z,1.80
2024-02-19T15:27:45.851Z,1.80
2024-02-19T15:30:13.046Z,1.80
2024-02-19T15:32:41.364Z,1.80
2024-02-19T15:35:09.136Z,1.80
2024-02-19T15:37:36.395Z,1.80
2024-02-19T15:40:03.998Z,1.80
2024-02-19T15:42:32.676Z,1.80
2024-02-19T15:44:59.724Z,1.80
2024-02-19T15:47:27.066Z,1.80
2024-02-19T15:49:58.301Z,1.70
2024-02-19T15:52:26.360Z,1.70
2024-02-19T15:54:53.857Z,1.70
2024-02-19T15:57:22.533Z,1.70
2024-02-19T15:59:49.929Z,1.70
2024-02-19T16:02:17.077Z,1.70
2024-02-19T16:04:44.429Z,1.70
2024-02-19T16:07:11.674Z,1.70
2024-02-19T16:09:39.741Z,1.70
2024-02-19T16:12:07.691Z,1.70
2024-02-19T16:14:38.323Z,1.70
2024-02-19T16:17:06.350Z,1.70
2024-02-19T16:19:33.668Z,1.60
2024-02-19T16:22:01.360Z,1.60
2024-02-19T16:24:35.567Z,1.60
2024-02-19T16:27:03.008Z,1.60
2024-02-19T16:29:30.314Z,1.60
2024-02-19T16:31:57.701Z,1.60
2024-02-19T16:34:25.077Z,1.60
2024-02-19T16:36:52.324Z,1.60
2024-02-19T16:39:19.571Z,1.60
2024-02-19T16:41:46.562Z,1.60
2024-02-19T16:44:13.711Z,1.60
2024-02-19T16:46:40.780Z,1.60
2024-02-19T16:49:08.121Z,1.60
2024-02-19T16:51:41.700Z,1.60
2024-02-19T16:54:09.958Z,1.60
2024-02-19T16:56:37.087Z,1.60
2024-02-19T16:59:04.612Z,1.60
2024-02-19T17:01:33.062Z,1.60
2024-02-19T17:04:00.482Z,1.50
2024-02-19T17:06:27.748Z,1.50
2024-02-19T17:08:54.825Z,1.50
2024-02-19T17:11:25.005Z,1.50
2024-02-19T17:13:52.386Z,1.50
2024-02-19T17:16:20.055Z,1.50
2024-02-19T17:18:47.249Z,1.50
2024-02-19T17:21:14.454Z,1.50
2024-02-19T17:23:44.329Z,1.50
2024-02-19T17:26:11.456Z,1.50
2024-02-19T17:28:38.738Z,1.50
2024-02-19T17:31:07.785Z,1.50
2024-02-19T17:33:35.058Z,1.40
2024-02-19T17:36:02.075Z,1.40
2024-02-19T17:38:29.632Z,1.40
2024-02-19T17:40:59.720Z,1.40
2024-02-19T17:43:26.993Z,1.40
2024-02-19T17:45:54.194Z,1.50
2024-02-19T17:48:22.716Z,1.50
2024-02-19T17:50:52.017Z,1.50
2024-02-19T17:53:19.045Z,1.50
2024-02-19T17:55:48.608Z,1.50
2024-02-19T17:58:15.879Z,1.50
2024-02-19T18:00:43.627Z,1.40
2024-02-19T18:03:11.190Z,1.50
2024-02-19T18:05:38.602Z,1.50
2024-02-19T18:08:05.997Z,1.50
2024-02-19T18:10:33.291Z,1.40
2024-02-19T18:13:00.773Z,1.50
2024-02-19T18:15:27.848Z,1.40
2024-02-19T18:17:55.187Z,1.50
2024-02-19T18:20:23.009Z,1.50
2024-02-19T18:22:50.162Z,1.40
2024-02-19T18:25:17.405Z,1.50
2024-02-19T18:27:44.616Z,1.50
2024-02-19T18:30:13.807Z,1.40
2024-02-19T18:32:44.202Z,1.40
2024-02-19T18:35:11.653Z,1.40
2024-02-19T18:37:38.978Z,1.40
2024-02-19T18:40:08.705Z,1.40
2024-02-19T18:42:36.503Z,1.40
2024-02-19T18:45:04.034Z,1.40
2024-02-19T18:47:31.224Z,1.40
2024-02-19T18:49:58.537Z,1.40
2024-02-19T18:52:25.683Z,1.40
2024-02-19T18:54:53.410Z,1.40
2024-02-19T18:57:20.624Z,1.40
2024-02-19T18:59:47.758Z,1.40
2024-02-19T19:02:15.064Z,1.40
2024-02-19T19:04:43.317Z,1.40
2024-02-19T19:07:10.763Z,1.40
2024-02-19T19:09:41.126Z,1.40
2024-02-19T19:12:09.070Z,1.40
2024-02-19T19:14:38.278Z,1.40
2024-02-19T19:17:06.125Z,1.40
2024-02-19T19:19:33.501Z,1.40
2024-02-19T19:22:00.854Z,1.40
2024-02-19T19:24:28.087Z,1.40
2024-02-19T19:26:55.174Z,1.40
2024-02-19T19:29:22.445Z,1.30
2024-02-19T19:31:49.507Z,1.40
2024-02-19T19:34:16.927Z,1.30
2024-02-19T19:36:44.019Z,1.30
2024-02-19T19:39:12.302Z,1.30
2024-02-19T19:41:39.707Z,1.30
2024-02-19T19:44:07.252Z,1.30
2024-02-19T19:46:34.578Z,1.30
2024-02-19T19:49:02.967Z,1.30
2024-02-19T19:51:30.620Z,1.30
2024-02-19T19:53:57.692Z,1.30
2024-02-19T19:56:25.709Z,1.30
2024-02-19T19:58:55.121Z,1.30
2024-02-19T20:01:22.709Z,1.30
2024-02-19T20:03:51.040Z,1.30
2024-02-19T20:06:18.465Z,1.30
2024-02-19T20:08:47.620Z,1.30
2024-02-19T20:11:14.922Z,1.30
2024-02-19T20:13:42.132Z,1.30
2024-02-19T20:16:10.469Z,1.30
2024-02-19T20:18:38.228Z,1.30
2024-02-19T20:21:05.907Z,1.30
2024-02-19T20:23:33.693Z,1.30
2024-02-19T20:26:00.852Z,1.30
2024-02-19T20:28:28.085Z,1.30
2024-02-19T20:30:55.231Z,1.30
2024-02-19T20:33:22.550Z,1.30
2024-02-19T20:35:49.706Z,1.30
2024-02-19T20:38:16.902Z,1.30
2024-02-19T20:40:44.032Z,1.20
2024-02-19T20:43:11.925Z,1.20
2024-02-19T20:45:39.035Z,1.20
2024-02-19T20:48:06.464Z,1.20
2024-02-19T20:50:33.722Z,1.20
2024-02-19T20:53:01.532Z,1.20
2024-02-19T20:55:28.792Z,1.20
2024-02-19T20:57:56.842Z,1.20
2024-02-19T21:00:24.093Z,1.20
2024-02-19T21:02:51.115Z,1.20
2024-02-19T21:05:21.026Z,1.20
2024-02-19T21:07:48.672Z,1.10
2024-02-19T21:10:16.152Z,1.10
2024-02-19T21:12:43.566Z,1.20
2024-02-19T21:15:16.468Z,1.10
2024-02-19T21:17:43.802Z,1.10
2024-02-19T21:20:12.272Z,1.10
2024-02-19T21:22:40.104Z,1.10
2024-02-19T21:25:08.409Z,1.10
2024-02-19T21:27:35.589Z,1.20
2024-02-19T21:30:05.344Z,1.10
2024-02-19T21:32:32.944Z,1.10
2024-02-19T21:35:01.865Z,1.10
2024-02-19T21:37:31.307Z,1.10
2024-02-19T21:40:01.338Z,1.10
2024-02-19T21:42:32.015Z,1.10
2024-02-19T21:44:59.439Z,1.10
2024-02-19T21:47:26.636Z,1.10
2024-02-19T21:49:53.907Z,1.10
2024-02-19T21:52:21.033Z,1.10
2024-02-19T21:54:48.216Z,1.10
2024-02-19T21:57:15.306Z,1.10
2024-02-19T21:59:44.100Z,1.10
2024-02-19T22:02:11.189Z,1.10
2024-02-19T22:04:40.614Z,1.10
2024-02-19T22:07:08.127Z,1.10
2024-02-19T22:09:36.049Z,1.10
2024-02-19T22:12:06.012Z,1.10
2024-02-19T22:14:33.303Z,1.10
2024-02-19T22:17:00.419Z,1.10
2024-02-19T22:19:27.766Z,1.10
2024-02-19T22:21:56.856Z,1.20
2024-02-19T22:24:25.459Z,1.20
2024-02-19T22:26:52.630Z,1.20
2024-02-19T22:29:19.781Z,1.20
2024-02-19T22:31:47.004Z,1.20
2024-02-19T22:34:14.103Z,1.30
2024-02-19T22:36:41.266Z,1.20
2024-02-19T22:39:11.084Z,1.20
2024-02-19T22:41:41.422Z,1.20
2024-02-19T22:44:08.673Z,1.30
2024-02-19T22:46:35.729Z,1.20
2024-02-19T22:49:03.031Z,1.30
2024-02-19T22:51:30.237Z,1.30
2024-02-19T22:53:57.299Z,1.30
2024-02-19T22:56:24.408Z,1.20
2024-02-19T22:58:51.557Z,1.30
2024-02-19T23:01:20.727Z,1.30
2024-02-19T23:03:48.094Z,1.30
2024-02-19T23:06:15.247Z,1.30
2024-02-19T23:08:42.736Z,1.30
2024-02-19T23:11:09.789Z,1.30
2024-02-19T23:13:37.010Z,1.30
2024-02-19T23:16:05.093Z,1.30
2024-02-19T23:18:32.746Z,1.30
2024-02-19T23:21:00.069Z,1.30
2024-02-19T23:23:27.821Z,1.30
2024-02-19T23:25:55.593Z,1.30
2024-02-19T23:28:25.481Z,1.30
2024-02-19T23:30:55.818Z,1.30
2024-02-19T23:33:24.400Z,1.30
2024-02-19T23:35:51.592Z,1.30
2024-02-19T23:38:19.495Z,1.30
2024-02-19T23:40:46.861Z,1.30
2024-02-19T23:43:15.889Z,1.30
2024-02-19T23:45:42.940Z,1.30
2024-02-19T23:48:11.024Z,1.40
2024-02-19T23:50:38.236Z,1.30
2024-02-19T23:53:05.645Z,1.30
2024-02-19T23:55:33.179Z,1.30
2024-02-19T23:58:00.370Z,1.30
